Time;durP1;ratioP1;P1;durP2;ratioP2;P2;SDS_P1;SDS_P2;PMS_P1;PMS_P2;Temp;Humidity;BMP_temperature;BMP_pressure;BME280_temperature;BME280_humidity;BME280_pressure;Samples;Min_cycle;Max_cycle;Signal;HPM_P1;HPM_P2
2022/12/18 00:01:50;;;;;;;83.35;21.30;;;-3.10;99.90;;;;;;5136313;27;20490;-73
2022/12/18 00:04:26;;;;;;;79.07;21.67;;;-3.10;99.90;;;;;;5135456;27;20431;-73
2022/12/18 00:06:53;;;;;;;72.57;20.52;;;-3.10;99.90;;;;;;5135590;27;20043;-73
2022/12/18 00:09:19;;;;;;;87.15;23.48;;;-3.20;99.90;;;;;;5117658;27;20066;-73
2022/12/18 00:11:45;;;;;;;82.07;21.50;;;-3.30;99.90;;;;;;5136452;27;20101;-72
2022/12/18 00:14:13;;;;;;;82.97;22.90;;;-3.20;99.90;;;;;;5120077;27;20039;-70
2022/12/18 00:16:39;;;;;;;;;;;-3.20;99.90;;;;;;5103678;27;20050;-72
2022/12/18 00:19:05;;;;;;;88.10;24.45;;;-3.30;99.90;;;;;;5137380;27;20280;-72
2022/12/18 00:21:32;;;;;;;99.97;26.05;;;-3.30;99.90;;;;;;5117991;27;20039;-72
2022/12/18 00:23:59;;;;;;;87.78;24.45;;;-3.30;99.90;;;;;;5135934;27;20042;-71
2022/12/18 00:26:28;;;;;;;85.53;24.00;;;-3.30;99.90;;;;;;5099862;27;20065;-73
2022/12/18 00:28:56;;;;;;;84.93;22.92;;;-3.40;99.90;;;;;;5117036;27;20444;-72
2022/12/18 00:31:24;;;;;;;84.20;22.63;;;-3.40;99.90;;;;;;5135319;27;20070;-73
2022/12/18 00:33:50;;;;;;;89.50;24.48;;;-3.30;99.90;;;;;;5116293;27;20035;-73
2022/12/18 00:36:28;;;;;;;89.75;22.95;;;-3.30;99.90;;;;;;5099589;27;20039;-73
2022/12/18 00:38:56;;;;;;;84.53;22.58;;;-3.30;99.90;;;;;;5117297;27;20047;-72
2022/12/18 00:44:09;;;;;;;83.47;23.63;;;-3.30;99.90;;;;;;5135022;27;20279;-74
2022/12/18 00:46:34;;;;;;;95.53;25.42;;;-3.40;99.90;;;;;;5134609;27;20100;-73
2022/12/18 00:49:00;;;;;;;94.78;26.23;;;-3.40;99.90;;;;;;5134567;27;20046;-75
2022/12/18 00:51:26;;;;;;;87.47;23.35;;;-3.40;99.90;;;;;;5116487;27;20100;-73
2022/12/18 00:53:52;;;;;;;91.65;24.45;;;-3.50;99.90;;;;;;5116261;27;20051;-73
2022/12/18 00:56:18;;;;;;;85.65;25.48;;;-3.60;99.90;;;;;;5116354;27;20107;-73
2022/12/18 00:58:43;;;;;;;81.72;23.88;;;-3.70;99.90;;;;;;5099092;27;20050;-73
2022/12/18 01:01:09;;;;;;;84.15;25.27;;;-3.70;99.90;;;;;;5115690;27;20039;-73
2022/12/18 01:03:35;;;;;;;85.85;22.83;;;-3.80;99.90;;;;;;5116044;27;20051;-71
2022/12/18 01:06:06;;;;;;;90.97;24.52;;;-3.90;99.90;;;;;;5116135;27;20051;-72
2022/12/18 01:08:32;;;;;;;89.15;24.83;;;-4.00;99.90;;;;;;5116711;27;20050;-73
2022/12/18 01:10:58;;;;;;;91.07;22.48;;;-4.00;99.90;;;;;;5133990;27;20055;-75
2022/12/18 01:13:23;;;;;;;85.75;23.95;;;-4.10;99.90;;;;;;5115885;27;20402;-73
2022/12/18 01:15:50;;;;;;;79.13;22.90;;;-4.30;99.90;;;;;;5115682;27;20038;-73
2022/12/18 01:18:16;;;;;;;73.17;22.67;;;-4.30;99.90;;;;;;5115956;27;20043;-74
2022/12/18 01:20:41;;;;;;;95.00;23.85;;;-4.40;99.90;;;;;;5134003;27;20043;-73
2022/12/18 01:23:07;;;;;;;86.63;22.70;;;-4.40;99.90;;;;;;5116019;27;20070;-73
2022/12/18 01:25:35;;;;;;;85.47;23.92;;;-4.40;99.90;;;;;;5134121;27;20502;-74
2022/12/18 01:28:01;;;;;;;95.25;24.48;;;-4.50;99.90;;;;;;5133989;27;20058;-73
2022/12/18 01:30:27;;;;;;;89.70;25.05;;;-4.50;99.90;;;;;;5133581;27;20407;-74
2022/12/18 01:32:53;;;;;;;89.95;23.65;;;-4.60;99.90;;;;;;5133887;27;20047;-72
2022/12/18 01:35:19;;;;;;;74.88;20.90;;;-4.60;99.90;;;;;;5133514;27;20039;-72
2022/12/18 01:37:44;;;;;;;74.18;21.33;;;-4.60;99.90;;;;;;5134100;27;20176;-72
2022/12/18 01:40:10;;;;;;;94.68;25.08;;;-4.60;99.90;;;;;;5115029;27;20498;-73
2022/12/18 01:42:36;;;;;;;94.35;24.30;;;-4.70;99.90;;;;;;5115309;27;20046;-73
2022/12/18 01:45:11;;;;;;;76.38;22.00;;;-4.70;99.90;;;;;;5115330;27;20049;-75
2022/12/18 01:47:43;;;;;;;82.75;23.75;;;-4.70;99.90;;;;;;5098258;27;20136;-72
2022/12/18 01:50:19;;;;;;;78.20;19.83;;;-4.70;99.90;;;;;;5134152;27;20050;-72
2022/12/18 01:52:52;;;;;;;61.33;15.45;;;-4.80;99.90;;;;;;5134157;27;20122;-72
2022/12/18 01:55:21;;;;;;;91.78;23.13;;;-4.80;99.90;;;;;;5115053;27;20132;-73
2022/12/18 01:57:49;;;;;;;90.95;24.45;;;-4.80;99.90;;;;;;5098534;28;20066;-72
2022/12/18 02:00:19;;;;;;;88.95;23.00;;;-4.90;99.90;;;;;;5133507;27;20103;-74
2022/12/18 02:02:46;;;;;;;91.32;22.65;;;-5.00;99.90;;;;;;5115746;27;20077;-72
2022/12/18 02:05:29;;;;;;;86.93;22.00;;;-5.00;99.90;;;;;;5114841;27;20140;-72
2022/12/18 02:08:00;;;;;;;92.15;24.48;;;-5.00;99.90;;;;;;5115661;28;20483;-74
2022/12/18 02:10:33;;;;;;;96.20;25.60;;;-5.10;99.90;;;;;;5135513;27;20403;-73
2022/12/18 02:13:27;;;;;;;101.65;24.42;;;-5.10;99.90;;;;;;5140244;27;20058;-73
2022/12/18 02:16:09;;;;;;;82.78;21.45;;;-5.10;99.90;;;;;;5122689;27;20092;-74
2022/12/18 02:18:40;;;;;;;94.70;24.55;;;-5.20;99.90;;;;;;5140518;27;20401;-73
2022/12/18 02:21:47;;;;;;;85.82;22.08;;;-5.20;99.90;;;;;;5121876;27;20121;-73
2022/12/18 02:24:32;;;;;;;94.63;21.70;;;-5.20;99.90;;;;;;5120663;27;20062;-73
2022/12/18 02:27:02;;;;;;;92.75;22.85;;;-5.20;99.90;;;;;;5140142;27;20487;-73
2022/12/18 02:29:40;;;;;;;89.40;23.75;;;-5.30;99.90;;;;;;5139533;27;20043;-74
2022/12/18 02:32:11;;;;;;;81.97;22.30;;;-5.30;99.90;;;;;;5122407;27;20051;-73
2022/12/18 02:34:39;;;;;;;88.30;23.38;;;-5.30;99.90;;;;;;5140553;27;20035;-73
2022/12/18 02:37:11;;;;;;;85.20;23.23;;;-5.40;99.90;;;;;;5121593;27;20047;-73
2022/12/18 02:39:40;;;;;;;92.07;24.85;;;-5.40;99.90;;;;;;5139878;27;20509;-74
2022/12/18 02:42:09;;;;;;;89.85;23.42;;;-5.40;99.90;;;;;;5121717;27;20042;-74
2022/12/18 02:44:42;;;;;;;94.55;24.10;;;-5.50;99.90;;;;;;5087741;27;20043;-74
2022/12/18 02:47:11;;;;;;;91.32;23.73;;;-5.50;99.90;;;;;;5122048;27;20047;-72
2022/12/18 02:49:57;;;;;;;88.00;22.92;;;-5.50;99.90;;;;;;5140514;27;20046;-72
2022/12/18 02:52:34;;;;;;;80.03;23.52;;;-5.50;99.90;;;;;;5107403;27;20055;-72
2022/12/18 02:55:22;;;;;;;96.00;23.58;;;-5.60;99.90;;;;;;5104693;27;20058;-74
2022/12/18 02:58:20;;;;;;;84.03;22.15;;;-5.60;99.90;;;;;;5104662;27;20054;-73
2022/12/18 03:00:59;;;;;;;91.72;22.75;;;-5.70;99.90;;;;;;5122142;27;20047;-73
2022/12/18 03:03:38;;;;;;;92.53;24.58;;;-5.70;99.90;;;;;;5121610;27;20509;-73
2022/12/18 03:06:18;;;;;;;87.43;22.52;;;-5.70;99.90;;;;;;5140036;27;20099;-73
2022/12/18 03:08:48;;;;;;;80.60;20.52;;;-5.70;99.90;;;;;;5105256;27;20047;-74
2022/12/18 03:11:15;;;;;;;91.13;25.15;;;-5.70;99.90;;;;;;5139605;27;20095;-72
2022/12/18 03:13:46;;;;;;;81.73;21.97;;;-5.70;99.90;;;;;;5121566;27;20047;-72
2022/12/18 03:16:21;;;;;;;78.22;22.55;;;-5.80;99.90;;;;;;5139678;27;20051;-71
2022/12/18 03:18:58;;;;;;;98.13;25.15;;;-5.80;99.90;;;;;;5140484;27;20451;-72
2022/12/18 03:21:40;;;;;;;70.20;18.13;;;-5.80;99.90;;;;;;5120841;27;20054;-72
2022/12/18 03:24:07;;;;;;;72.60;18.98;;;-5.80;99.90;;;;;;5118208;27;20047;-72
2022/12/18 03:26:37;;;;;;;77.53;20.92;;;-5.80;99.90;;;;;;5135704;27;20363;-78
2022/12/18 03:29:08;;;;;;;76.28;21.48;;;-5.80;99.90;;;;;;5100923;27;20092;-76
2022/12/18 03:31:35;;;;;;;81.57;22.38;;;-5.80;99.90;;;;;;5117741;27;20119;-76
2022/12/18 03:34:05;;;;;;;85.20;20.80;;;-5.90;99.90;;;;;;5136276;27;20082;-76
2022/12/18 03:36:31;;;;;;;70.35;17.08;;;-5.90;99.90;;;;;;5117927;27;20051;-76
2022/12/18 03:38:57;;;;;;;72.10;21.03;;;-5.90;99.90;;;;;;5136156;27;20050;-76
2022/12/18 03:41:48;;;;;;;70.40;19.10;;;-5.90;99.90;;;;;;5100871;27;20055;-77
2022/12/18 03:44:18;;;;;;;51.30;13.82;;;-5.90;99.90;;;;;;5118288;27;20102;-76
2022/12/18 03:47:24;;;;;;;54.85;17.13;;;-5.90;99.90;;;;;;5117645;27;20483;-76
2022/12/18 03:50:15;;;;;;;67.20;20.25;;;-5.90;99.90;;;;;;5117495;27;20490;-77
2022/12/18 03:52:49;;;;;;;63.95;19.67;;;-5.90;99.90;;;;;;5117950;27;20368;-76
2022/12/18 03:55:16;;;;;;;60.22;17.33;;;-5.90;99.90;;;;;;5118235;27;20069;-75
2022/12/18 03:57:42;;;;;;;;;;;-5.90;99.90;;;;;;5100994;27;20058;-78
2022/12/18 04:00:16;;;;;;;62.03;19.00;;;-5.90;99.90;;;;;;5135590;27;19926;-77
2022/12/18 04:02:48;;;;;;;66.75;18.20;;;-6.00;99.90;;;;;;5117502;27;20471;-77
2022/12/18 04:05:15;;;;;;;67.38;18.70;;;-6.00;99.90;;;;;;5135381;27;20043;-78
2022/12/18 04:07:41;;;;;;;55.72;17.85;;;-6.00;99.90;;;;;;5100845;27;20043;-75
2022/12/18 04:10:10;;;;;;;62.17;17.23;;;-6.00;99.90;;;;;;5100262;27;20179;-75
2022/12/18 04:12:37;;;;;;;53.05;17.85;;;-6.10;99.90;;;;;;5118149;27;20053;-77
2022/12/18 04:15:04;;;;;;;59.13;18.80;;;-6.10;99.90;;;;;;5137038;27;20062;-77
2022/12/18 04:17:30;;;;;;;69.70;18.83;;;-6.10;99.90;;;;;;5117829;27;20428;-76
2022/12/18 04:19:55;;;;;;;57.13;17.80;;;-6.10;99.90;;;;;;5117980;27;20075;-77
2022/12/18 04:22:21;;;;;;;55.67;17.95;;;-6.20;99.90;;;;;;5135266;27;20074;-76
2022/12/18 04:24:47;;;;;;;53.90;16.90;;;-6.20;99.90;;;;;;5100579;27;20147;-76
2022/12/18 04:27:13;;;;;;;63.22;18.15;;;-6.20;99.90;;;;;;5135035;27;20043;-76
2022/12/18 04:29:39;;;;;;;55.50;17.58;;;-6.20;99.90;;;;;;5134837;27;20138;-76
2022/12/18 04:32:05;;;;;;;62.92;17.98;;;-6.20;99.90;;;;;;5135195;27;20126;-76
2022/12/18 04:34:30;;;;;;;65.75;18.08;;;-6.20;99.90;;;;;;5135280;27;20050;-76
2022/12/18 04:36:56;;;;;;;52.10;16.02;;;-6.20;99.90;;;;;;5117032;27;20039;-76
2022/12/18 04:39:22;;;;;;;56.05;18.42;;;-6.20;99.90;;;;;;5135395;27;20058;-77
2022/12/18 04:41:47;;;;;;;53.92;16.75;;;-6.20;99.90;;;;;;5116452;27;20043;-77
2022/12/18 04:44:13;;;;;;;54.17;16.02;;;-6.20;99.90;;;;;;5116542;27;20039;-76
2022/12/18 04:46:39;;;;;;;44.42;14.00;;;-6.10;99.90;;;;;;5134791;27;20047;-77
2022/12/18 04:49:05;;;;;;;42.78;13.63;;;-6.10;99.90;;;;;;5116616;27;20258;-76
2022/12/18 04:51:30;;;;;;;49.13;15.48;;;-6.20;99.90;;;;;;5116246;27;20094;-76
2022/12/18 04:53:56;;;;;;;47.13;15.75;;;-6.20;99.90;;;;;;5134483;27;20086;-76
2022/12/18 04:56:22;;;;;;;34.47;10.77;;;-6.20;99.90;;;;;;5134475;27;20043;-76
2022/12/18 04:58:48;;;;;;;49.25;15.35;;;-6.10;99.90;;;;;;5116256;27;20058;-76
2022/12/18 05:01:16;;;;;;;47.40;15.45;;;-6.10;99.90;;;;;;5115856;27;20047;-76
2022/12/18 05:03:42;;;;;;;46.42;14.23;;;-6.20;99.90;;;;;;5134287;27;20039;-77
2022/12/18 05:06:09;;;;;;;37.55;12.75;;;-6.20;99.90;;;;;;5134412;27;20047;-76
2022/12/18 05:08:34;;;;;;;49.87;16.23;;;-6.10;99.90;;;;;;5116342;27;20047;-78
2022/12/18 05:11:11;;;;;;;48.70;16.20;;;-6.10;99.90;;;;;;5116606;27;20127;-76
2022/12/18 05:13:38;;;;;;;44.35;14.35;;;-6.10;99.90;;;;;;5115745;27;20054;-77
2022/12/18 05:16:04;;;;;;;44.20;14.07;;;-6.20;99.90;;;;;;5116041;27;20428;-76
2022/12/18 05:18:30;;;;;;;46.88;14.05;;;-6.20;99.90;;;;;;5115713;27;20069;-77
2022/12/18 05:20:56;;;;;;;44.20;15.20;;;-6.20;99.90;;;;;;5116074;27;20126;-77
2022/12/18 05:23:23;;;;;;;48.78;14.63;;;-6.20;99.90;;;;;;5134037;27;20043;-77
2022/12/18 05:26:00;;;;;;;42.55;13.05;;;-6.20;99.90;;;;;;5133951;27;20043;-77
2022/12/18 05:28:29;;;;;;;39.55;13.02;;;-6.20;99.90;;;;;;5134081;27;20054;-76
2022/12/18 05:30:59;;;;;;;41.92;13.27;;;-6.20;99.90;;;;;;5133862;27;20475;-78
2022/12/18 05:33:28;;;;;;;40.72;14.27;;;-6.10;99.90;;;;;;5115649;27;20114;-75
2022/12/18 05:35:56;;;;;;;44.72;13.40;;;-6.20;99.90;;;;;;5115414;27;20529;-75
2022/12/18 05:38:23;;;;;;;41.28;13.60;;;-6.10;99.90;;;;;;5115423;27;20047;-75
2022/12/18 05:40:50;;;;;;;39.15;13.90;;;-6.20;99.90;;;;;;5133435;27;20479;-77
2022/12/18 05:43:16;;;;;;;50.13;15.70;;;-6.10;99.90;;;;;;5115777;27;20435;-76
2022/12/18 05:45:42;;;;;;;31.17;10.90;;;-6.20;99.90;;;;;;5098085;27;20043;-76
2022/12/18 05:48:11;;;;;;;40.75;14.60;;;-6.20;99.90;;;;;;5098696;27;20230;-76
2022/12/18 05:50:38;;;;;;;44.53;12.98;;;-6.20;99.90;;;;;;5115281;27;20483;-76
2022/12/18 05:53:05;;;;;;;40.17;13.95;;;-6.20;99.90;;;;;;5133872;27;20067;-75
2022/12/18 05:55:35;;;;;;;44.25;15.40;;;-6.20;99.90;;;;;;5133498;27;20454;-76
2022/12/18 05:58:01;;;;;;;42.45;13.73;;;-6.30;99.90;;;;;;5115813;27;20035;-75
2022/12/18 06:00:27;;;;;;;38.60;14.20;;;-6.30;99.90;;;;;;5115163;27;20043;-77
2022/12/18 06:02:52;;;;;;;54.40;16.13;;;-6.30;99.90;;;;;;5133844;27;20394;-77
2022/12/18 06:05:18;;;;;;;48.67;14.85;;;-6.30;99.90;;;;;;5114681;27;20043;-77
2022/12/18 06:07:47;;;;;;;41.03;13.88;;;-6.30;99.90;;;;;;5115488;28;20047;-78
2022/12/18 06:10:12;;;;;;;43.65;14.73;;;-6.40;99.90;;;;;;5114956;28;20047;-75
2022/12/18 06:12:38;;;;;;;45.38;15.10;;;-6.40;99.90;;;;;;5114700;28;20050;-75
2022/12/18 06:15:04;;;;;;;42.10;15.15;;;-6.40;99.90;;;;;;5081303;28;20062;-75
2022/12/18 06:17:32;;;;;;;37.67;13.48;;;-6.40;99.90;;;;;;5081340;28;20047;-75
2022/12/18 06:19:58;;;;;;;40.53;14.48;;;-6.40;99.90;;;;;;5133202;28;20054;-76
2022/12/18 06:22:24;;;;;;;44.17;14.15;;;-6.40;99.90;;;;;;5115274;28;20043;-76
2022/12/18 06:24:50;;;;;;;43.33;14.05;;;-6.40;99.90;;;;;;5097885;28;20040;-76
2022/12/18 06:27:16;;;;;;;38.03;12.95;;;-6.40;99.90;;;;;;5133552;28;20054;-77
2022/12/18 06:29:42;;;;;;;46.97;14.73;;;-6.40;99.90;;;;;;5133560;28;20055;-77
2022/12/18 06:32:08;;;;;;;39.35;14.50;;;-6.40;99.90;;;;;;5133198;28;20463;-75
2022/12/18 06:34:34;;;;;;;40.92;15.32;;;-6.40;99.90;;;;;;5114978;28;20058;-75
2022/12/18 06:37:00;;;;;;;49.03;15.95;;;-6.50;99.90;;;;;;5133453;28;20045;-75
2022/12/18 06:39:29;;;;;;;39.22;14.52;;;-6.50;99.90;;;;;;5115616;28;20485;-76
2022/12/18 06:41:55;;;;;;;49.90;15.77;;;-6.50;99.90;;;;;;5133675;28;20039;-76
2022/12/18 06:44:21;;;;;;;40.53;13.65;;;-6.40;99.90;;;;;;5133706;28;20046;-78
2022/12/18 06:46:46;;;;;;;42.05;13.00;;;-6.40;99.90;;;;;;5133377;28;20043;-77
2022/12/18 06:49:12;;;;;;;32.75;12.88;;;-6.40;99.90;;;;;;5133647;28;20043;-77
2022/12/18 06:51:38;;;;;;;31.52;10.60;;;-6.40;99.90;;;;;;5134046;28;20134;-78
2022/12/18 06:54:04;;;;;;;42.55;14.27;;;-6.40;99.90;;;;;;5116186;28;20352;-77
2022/12/18 06:56:30;;;;;;;41.97;13.68;;;-6.40;99.90;;;;;;5134326;27;20049;-78
2022/12/18 06:58:56;;;;;;;38.90;13.27;;;-6.40;99.90;;;;;;5137133;27;20104;-77
2022/12/18 07:01:23;;;;;;;34.72;12.98;;;-6.40;99.90;;;;;;5118652;27;20050;-76
2022/12/18 07:03:53;;;;;;;36.13;12.93;;;-6.40;99.90;;;;;;5119178;27;20440;-78
2022/12/18 07:06:24;;;;;;;50.15;19.83;;;-6.40;99.90;;;;;;5119002;27;20057;-79
2022/12/18 07:08:51;;;;;;;60.78;20.85;;;-6.30;99.90;;;;;;5118365;27;20043;-76
2022/12/18 07:11:17;;;;;;;51.10;20.40;;;-6.30;99.90;;;;;;5136652;27;20126;-77
2022/12/18 07:13:44;;;;;;;41.45;16.70;;;-6.40;99.90;;;;;;5118095;27;20047;-81
2022/12/18 07:16:13;;;;;;;61.70;24.60;;;-6.40;99.90;;;;;;5136562;27;20043;-77
2022/12/18 07:18:39;;;;;;;50.08;17.70;;;-6.50;99.90;;;;;;5136561;27;20039;-76
2022/12/18 07:21:07;;;;;;;68.53;29.80;;;-6.50;99.90;;;;;;5136502;27;20043;-76
2022/12/18 07:23:34;;;;;;;63.08;25.73;;;-6.50;99.90;;;;;;5100754;27;20142;-76
2022/12/18 07:26:08;;;;;;;44.97;19.45;;;-6.50;99.90;;;;;;5136655;27;20070;-77
2022/12/18 07:28:36;;;;;;;61.63;27.40;;;-6.50;99.90;;;;;;5118731;27;20491;-75
2022/12/18 07:31:06;;;;;;;88.18;43.92;;;-6.50;99.90;;;;;;5097673;28;20055;-77
2022/12/18 07:33:33;;;;;;;55.92;25.00;;;-6.40;99.90;;;;;;5098465;28;20407;-76
2022/12/18 07:36:00;;;;;;;37.40;14.25;;;-6.40;99.90;;;;;;5115554;28;20119;-77
2022/12/18 07:38:26;;;;;;;34.13;11.88;;;-6.40;99.90;;;;;;5115761;28;20043;-75
2022/12/18 07:40:51;;;;;;;37.05;12.82;;;-6.40;99.90;;;;;;5115937;28;20086;-77
2022/12/18 07:43:17;;;;;;;35.88;12.50;;;-6.40;99.90;;;;;;5097468;28;20047;-76
2022/12/18 07:45:43;;;;;;;38.05;13.00;;;-6.40;99.90;;;;;;5080145;28;20048;-74
2022/12/18 07:48:08;;;;;;;31.45;11.40;;;-6.40;99.90;;;;;;5114422;28;20143;-75
2022/12/18 07:50:34;;;;;;;21.67;8.38;;;-6.30;99.90;;;;;;5114703;28;20055;-75
2022/12/18 07:53:03;;;;;;;32.30;11.88;;;-6.30;99.90;;;;;;5114308;28;20394;-76
2022/12/18 07:55:32;;;;;;;28.90;10.85;;;-6.20;99.90;;;;;;5114001;28;20048;-75
2022/12/18 07:58:01;;;;;;;31.02;10.57;;;-6.20;99.90;;;;;;5115582;28;20054;-75
2022/12/18 08:00:27;;;;;;;34.70;11.00;;;-6.20;99.90;;;;;;5115525;28;20062;-76
2022/12/18 08:02:53;;;;;;;31.65;12.80;;;-6.20;99.90;;;;;;5097113;28;20127;-76
2022/12/18 08:05:18;;;;;;;37.25;12.60;;;-6.20;99.90;;;;;;5097486;28;20043;-76
2022/12/18 08:07:44;;;;;;;70.93;28.83;;;-6.20;99.90;;;;;;5115421;28;20092;-78
2022/12/18 08:10:10;;;;;;;69.50;27.65;;;-6.10;99.90;;;;;;5097070;28;20098;-78
2022/12/18 08:12:36;;;;;;;50.50;22.33;;;-6.10;99.90;;;;;;5113848;28;20056;-77
2022/12/18 08:15:01;;;;;;;55.63;22.95;;;-6.00;99.90;;;;;;5115090;28;20040;-76
2022/12/18 08:17:27;;;;;;;62.42;27.95;;;-6.00;99.90;;;;;;5097018;28;20044;-75
2022/12/18 08:19:53;;;;;;;39.10;14.32;;;-5.90;99.90;;;;;;5114201;28;20184;-76
2022/12/18 08:22:19;;;;;;;41.47;15.52;;;-5.90;99.90;;;;;;5114512;28;20501;-76
2022/12/18 08:24:45;;;;;;;42.50;20.00;;;-5.90;99.90;;;;;;5080710;28;20459;-75
2022/12/18 08:27:10;;;;;;;42.40;14.82;;;-5.90;99.90;;;;;;5113898;28;20044;-76
2022/12/18 08:29:36;;;;;;;47.17;18.67;;;-5.90;99.90;;;;;;5116840;27;20467;-82
2022/12/18 08:32:02;;;;;;;37.05;13.00;;;-5.80;99.90;;;;;;5135264;27;20531;-75
2022/12/18 08:34:28;;;;;;;33.17;13.23;;;-5.80;99.90;;;;;;5134983;27;20058;-75
2022/12/18 08:36:53;;;;;;;19.63;7.68;;;-5.70;99.90;;;;;;5116915;27;20047;-75
2022/12/18 08:39:19;;;;;;;35.80;12.40;;;-5.70;99.90;;;;;;5135216;27;20046;-76
2022/12/18 08:44:37;;;;;;;31.67;12.02;;;-5.60;99.90;;;;;;5100590;27;20108;-77
2022/12/18 08:44:41;;;;;;;19.30;7.05;;;-5.60;99.90;;;;;;5117555;27;20043;-76
2022/12/18 08:47:07;;;;;;;26.23;11.05;;;-5.50;99.90;;;;;;5086053;27;20047;-74
2022/12/18 08:49:33;;;;;;;25.77;9.35;;;-5.40;99.90;;;;;;5135022;27;20047;-75
2022/12/18 08:51:59;;;;;;;26.25;9.77;;;-5.30;99.90;;;;;;5099674;27;20047;-75
2022/12/18 08:54:26;;;;;;;22.83;7.60;;;-5.30;99.90;;;;;;5117301;27;20058;-76
2022/12/18 08:56:52;;;;;;;23.10;7.43;;;-5.10;99.90;;;;;;5116228;27;20162;-76
2022/12/18 08:59:18;;;;;;;26.20;8.63;;;-5.10;99.90;;;;;;5116106;27;20083;-74
2022/12/18 09:01:45;;;;;;;19.88;7.55;;;-5.00;99.90;;;;;;5116200;27;20050;-75
2022/12/18 09:04:11;;;;;;;27.60;10.93;;;-4.90;99.90;;;;;;5134499;27;20134;-75
2022/12/18 09:06:38;;;;;;;22.15;7.18;;;-4.80;99.90;;;;;;5116723;27;20122;-77
2022/12/18 09:09:04;;;;;;;20.67;7.55;;;-4.70;99.90;;;;;;5134246;27;20075;-77
2022/12/18 09:11:31;;;;;;;19.77;6.10;;;-4.70;99.90;;;;;;5098769;27;20513;-77
2022/12/18 09:13:59;;;;;;;19.65;8.25;;;-4.60;99.90;;;;;;5115853;27;20050;-76
2022/12/18 09:16:27;;;;;;;30.65;11.20;;;-4.50;99.90;;;;;;5134145;27;20051;-76
2022/12/18 09:18:59;;;;;;;32.30;11.38;;;-4.50;99.90;;;;;;5081815;27;20050;-76
2022/12/18 09:21:28;;;;;;;23.33;10.02;;;-4.50;99.90;;;;;;5133372;27;20067;-76
2022/12/18 09:23:55;;;;;;;27.48;11.10;;;-4.50;99.90;;;;;;5133589;27;20509;-75
2022/12/18 09:26:22;;;;;;;26.90;10.70;;;-4.40;99.90;;;;;;5115972;27;20444;-75
2022/12/18 09:28:48;;;;;;;20.70;8.80;;;-4.30;99.90;;;;;;5134080;27;20058;-78
2022/12/18 09:31:14;;;;;;;22.80;9.38;;;-4.30;99.90;;;;;;5115174;27;20099;-77
2022/12/18 09:33:40;;;;;;;24.15;8.13;;;-4.20;99.90;;;;;;5134509;27;20051;-76
2022/12/18 09:36:09;;;;;;;19.00;7.38;;;-4.00;99.90;;;;;;5098418;27;20051;-75
2022/12/18 09:38:35;;;;;;;21.63;8.90;;;-4.00;99.90;;;;;;5133929;27;20122;-76
2022/12/18 09:41:17;;;;;;;26.52;10.20;;;-3.90;99.90;;;;;;5115392;27;20167;-74
2022/12/18 09:43:48;;;;;;;26.92;9.52;;;-3.80;99.90;;;;;;5116151;27;20078;-75
2022/12/18 09:46:25;;;;;;;17.85;7.07;;;-3.70;99.90;;;;;;5115673;27;20055;-75
2022/12/18 09:48:52;;;;;;;16.85;6.40;;;-3.70;99.90;;;;;;5134366;27;20043;-76
2022/12/18 09:51:29;;;;;;;24.65;9.23;;;-3.60;99.90;;;;;;5098857;27;20051;-75
2022/12/18 09:54:04;;;;;;;25.80;9.20;;;-3.60;99.90;;;;;;5116105;27;20079;-75
2022/12/18 09:56:40;;;;;;;17.20;6.75;;;-3.50;99.90;;;;;;5099341;28;20352;-74
2022/12/18 09:59:06;;;;;;;14.85;5.30;;;-3.40;99.90;;;;;;5099101;27;20047;-75
2022/12/18 10:01:33;;;;;;;12.77;5.40;;;-3.30;99.90;;;;;;5133362;27;20050;-75
2022/12/18 10:04:02;;;;;;;21.98;6.35;;;-3.20;99.90;;;;;;5099406;27;20049;-76
2022/12/18 10:06:49;;;;;;;21.80;8.55;;;-3.20;99.90;;;;;;5133771;27;20047;-76
2022/12/18 10:09:40;;;;;;;18.27;7.80;;;-3.10;99.90;;;;;;5115678;28;20081;-75
2022/12/18 10:12:06;;;;;;;18.00;6.80;;;-3.10;99.90;;;;;;5133445;28;20043;-75
2022/12/18 10:14:56;;;;;;;23.10;7.97;;;-3.20;99.90;;;;;;5133031;28;20142;-75
2022/12/18 10:17:39;;;;;;;16.88;7.28;;;-3.20;99.90;;;;;;5099094;28;20095;-75
2022/12/18 10:20:35;;;;;;;20.25;7.30;;;-3.20;99.90;;;;;;5115826;28;20430;-76
2022/12/18 10:23:10;;;;;;;23.95;9.18;;;-3.20;99.90;;;;;;5133788;28;20043;-75
2022/12/18 10:25:50;;;;;;;22.27;7.85;;;-3.10;99.90;;;;;;5133085;28;20086;-80
2022/12/18 10:28:18;;;;;;;24.38;9.50;;;-3.20;99.90;;;;;;5115278;28;20047;-78
2022/12/18 10:30:43;;;;;;;24.77;9.57;;;-3.10;99.90;;;;;;5133509;27;20497;-75
2022/12/18 10:33:21;;;;;;;22.60;8.57;;;-3.10;99.90;;;;;;5118817;27;20118;-75
2022/12/18 10:35:51;;;;;;;23.98;8.75;;;-3.10;99.90;;;;;;5102950;27;20043;-76
2022/12/18 10:38:17;;;;;;;21.35;9.10;;;-3.00;99.90;;;;;;5137809;27;20203;-76
2022/12/18 10:40:55;;;;;;;22.77;8.40;;;-3.00;99.90;;;;;;5118968;27;20463;-76
2022/12/18 10:43:32;;;;;;;20.15;8.20;;;-2.90;99.90;;;;;;5137524;27;20530;-76
2022/12/18 10:46:12;;;;;;;20.98;8.85;;;-2.80;99.90;;;;;;5119403;27;20166;-77
2022/12/18 10:48:46;;;;;;;22.42;8.32;;;-2.80;99.90;;;;;;5103709;27;20332;-75
2022/12/18 10:51:20;;;;;;;15.30;6.85;;;-2.70;99.90;;;;;;5102881;27;20047;-76
2022/12/18 10:54:00;;;;;;;17.13;7.63;;;-2.60;99.90;;;;;;5139627;27;20078;-77
2022/12/18 10:56:28;;;;;;;19.55;7.65;;;-2.50;99.90;;;;;;5140055;27;20035;-75
2022/12/18 10:59:06;;;;;;;13.95;4.50;;;-2.40;99.90;;;;;;5120989;27;20051;-77
2022/12/18 11:01:54;;;;;;;18.00;9.00;;;-2.20;99.90;;;;;;5137156;27;20082;-77
2022/12/18 11:04:24;;;;;;;17.42;7.53;;;-2.20;99.90;;;;;;5102308;27;20054;-76
2022/12/18 11:07:05;;;;;;;19.05;7.05;;;-2.20;99.90;;;;;;5118732;27;20051;-76
2022/12/18 11:09:36;;;;;;;16.55;6.97;;;-2.10;99.90;;;;;;5118822;27;20051;-75
2022/12/18 11:12:06;;;;;;;18.42;7.50;;;-2.00;99.90;;;;;;5136345;27;20043;-76
2022/12/18 11:14:46;;;;;;;17.45;6.78;;;-1.90;99.90;;;;;;5136733;27;20043;-76
2022/12/18 11:17:35;;;;;;;15.95;5.80;;;-1.90;99.90;;;;;;5136566;27;20047;-76
2022/12/18 11:20:35;;;;;;;17.23;7.07;;;-1.80;99.90;;;;;;5101474;27;20551;-77
2022/12/18 11:23:05;;;;;;;11.77;4.68;;;-1.70;99.90;;;;;;5118175;27;20047;-75
2022/12/18 11:25:33;;;;;;;17.23;6.78;;;-1.70;99.90;;;;;;5101630;27;20131;-74
2022/12/18 11:28:06;;;;;;;17.80;6.63;;;-1.60;99.90;;;;;;5135911;27;20043;-75
2022/12/18 11:30:34;;;;;;;25.25;10.70;;;-1.60;99.90;;;;;;5118502;27;20061;-79
2022/12/18 11:33:05;;;;;;;14.85;5.13;;;-1.50;99.90;;;;;;5136557;27;20055;-75
2022/12/18 11:35:51;;;;;;;17.63;7.90;;;-1.50;99.90;;;;;;5101152;27;20450;-74
2022/12/18 11:38:17;;;;;;;16.10;6.25;;;-1.50;99.90;;;;;;5117933;27;20047;-75
2022/12/18 11:40:47;;;;;;;12.85;5.10;;;-1.40;99.90;;;;;;5136163;27;20123;-75
2022/12/18 11:43:28;;;;;;;12.85;4.90;;;-1.30;99.90;;;;;;5116776;27;20051;-76
2022/12/18 11:46:07;;;;;;;10.75;5.10;;;-1.30;99.90;;;;;;5136682;27;20104;-75
2022/12/18 11:48:47;;;;;;;17.65;7.03;;;-1.30;99.90;;;;;;5136363;27;20039;-76
2022/12/18 11:51:21;;;;;;;10.27;4.25;;;-1.20;99.90;;;;;;5136012;27;20048;-76
2022/12/18 11:53:47;;;;;;;12.98;5.47;;;-1.20;99.90;;;;;;5136340;27;20079;-77
2022/12/18 11:56:35;;;;;;;9.48;3.60;;;-1.20;99.90;;;;;;5084349;27;20082;-76
2022/12/18 11:59:14;;;;;;;8.98;3.78;;;-1.10;99.90;;;;;;5136006;27;20058;-75
2022/12/18 12:01:55;;;;;;;18.13;6.03;;;-1.10;99.90;;;;;;5118149;27;20047;-76
2022/12/18 12:04:38;;;;;;;15.93;5.80;;;-1.10;99.90;;;;;;5135544;27;20143;-77
2022/12/18 12:07:07;;;;;;;10.25;3.40;;;-1.10;99.90;;;;;;5118051;27;20417;-76
2022/12/18 12:10:06;;;;;;;11.88;5.15;;;-0.90;99.90;;;;;;5135257;27;20560;-75
2022/12/18 12:12:47;;;;;;;10.60;4.38;;;-0.90;99.90;;;;;;5117808;27;20047;-76
2022/12/18 12:15:19;;;;;;;11.68;3.28;;;-0.90;99.90;;;;;;5117493;27;20043;-74
2022/12/18 12:18:08;;;;;;;8.15;3.22;;;-0.80;99.90;;;;;;5117596;27;20050;-75
2022/12/18 12:20:56;;;;;;;9.30;3.90;;;-0.70;99.90;;;;;;5120105;27;20179;-76
2022/12/18 12:23:40;;;;;;;13.75;5.32;;;-0.70;99.90;;;;;;5135451;27;20106;-74
2022/12/18 12:26:15;;;;;;;5.63;2.15;;;-0.70;99.90;;;;;;5117853;27;20043;-75
2022/12/18 12:29:08;;;;;;;12.75;2.97;;;-0.80;99.90;;;;;;5136068;27;20121;-76
2022/12/18 12:31:49;;;;;;;11.20;3.17;;;-0.70;99.90;;;;;;5135547;27;20139;-75
2022/12/18 12:34:50;;;;;;;7.25;2.85;;;-0.60;99.90;;;;;;5135136;27;20126;-76
2022/12/18 12:37:37;;;;;;;11.38;3.78;;;-0.60;99.90;;;;;;5116973;27;20051;-74
2022/12/18 12:40:03;;;;;;;5.38;1.88;;;-0.60;99.90;;;;;;5134959;27;20043;-74
2022/12/18 12:46:00;;;;;;;9.52;2.63;;;-0.60;99.90;;;;;;5134959;27;20089;-77
2022/12/18 12:49:04;;;;;;;11.13;4.43;;;-0.50;99.90;;;;;;5116250;27;20043;-75
2022/12/18 12:51:38;;;;;;;9.73;3.47;;;-0.50;99.90;;;;;;5131601;27;20397;-76
2022/12/18 12:54:12;;;;;;;12.02;4.80;;;-0.50;99.90;;;;;;5135263;27;20035;-77
2022/12/18 12:56:56;;;;;;;11.88;3.83;;;-0.40;99.90;;;;;;5134849;27;20051;-75